sensor_id;sensor_type;location;lat;lon;timestamp;pressure;altitude;pressure_sealevel;temperature;humidity
72359;BME280;60317;48.880;-0.862;2023-08-30T00:02:09;99872.59;;;18.62;65.80
72359;BME280;60317;48.880;-0.862;2023-08-30T00:04:36;99875.97;;;18.64;65.75
72359;BME280;60317;48.880;-0.862;2023-08-30T00:07:02;99880.50;;;18.63;65.82
72359;BME280;60317;48.880;-0.862;2023-08-30T00:09:30;99871.88;;;18.59;66.05
72359;BME280;60317;48.880;-0.862;2023-08-30T00:11:57;99874.56;;;18.59;66.10
72359;BME280;60317;48.880;-0.862;2023-08-30T00:14:23;99872.59;;;18.62;65.75
72359;BME280;60317;48.880;-0.862;2023-08-30T00:16:50;99873.59;;;18.60;66.03
72359;BME280;60317;48.880;-0.862;2023-08-30T00:19:16;99873.72;;;18.59;66.18
72359;BME280;60317;48.880;-0.862;2023-08-30T00:21:43;99874.56;;;18.59;66.27
72359;BME280;60317;48.880;-0.862;2023-08-30T00:24:09;99865.84;;;18.57;66.54
72359;BME280;60317;48.880;-0.862;2023-08-30T00:26:37;99863.84;;;18.59;66.41
72359;BME280;60317;48.880;-0.862;2023-08-30T00:29:04;99860.47;;;18.57;66.67
72359;BME280;60317;48.880;-0.862;2023-08-30T00:31:30;99862.16;;;18.58;66.67
72359;BME280;60317;48.880;-0.862;2023-08-30T00:33:57;99856.81;;;18.58;66.58
72359;BME280;60317;48.880;-0.862;2023-08-30T00:36:23;99855.97;;;18.58;66.92
72359;BME280;60317;48.880;-0.862;2023-08-30T00:38:49;99859.66;;;18.57;67.15
72359;BME280;60317;48.880;-0.862;2023-08-30T00:41:16;99852.47;;;18.57;67.38
72359;BME280;60317;48.880;-0.862;2023-08-30T00:43:44;99851.72;;;18.55;67.45
72359;BME280;60317;48.880;-0.862;2023-08-30T00:46:11;99839.34;;;18.54;67.63
72359;BME280;60317;48.880;-0.862;2023-08-30T00:48:37;99838.34;;;18.55;67.76
72359;BME280;60317;48.880;-0.862;2023-08-30T00:51:04;99835.66;;;18.55;67.76
72359;BME280;60317;48.880;-0.862;2023-08-30T00:53:31;99836.50;;;18.56;67.83
72359;BME280;60317;48.880;-0.862;2023-08-30T00:55:58;99841.03;;;18.55;68.09
72359;BME280;60317;48.880;-0.862;2023-08-30T00:58:25;99836.50;;;18.56;67.93
72359;BME280;60317;48.880;-0.862;2023-08-30T01:00:53;99838.22;;;18.57;67.99
72359;BME280;60317;48.880;-0.862;2023-08-30T01:03:20;99832.00;;;18.56;68.00
72359;BME280;60317;48.880;-0.862;2023-08-30T01:05:47;99838.22;;;18.57;68.22
72359;BME280;60317;48.880;-0.862;2023-08-30T01:08:13;99841.88;;;18.56;68.25
72359;BME280;60317;48.880;-0.862;2023-08-30T01:10:47;99837.34;;;18.56;68.36
72359;BME280;60317;48.880;-0.862;2023-08-30T01:13:19;99842.88;;;18.55;68.92
72359;BME280;60317;48.880;-0.862;2023-08-30T01:15:47;99836.50;;;18.56;68.42
72359;BME280;60317;48.880;-0.862;2023-08-30T01:18:17;99835.94;;;18.52;68.89
72359;BME280;60317;48.880;-0.862;2023-08-30T01:20:45;99828.63;;;18.54;68.87
72359;BME280;60317;48.880;-0.862;2023-08-30T01:23:21;99831.16;;;18.56;68.79
72359;BME280;60317;48.880;-0.862;2023-08-30T01:25:55;99829.47;;;18.55;68.83
72359;BME280;60317;48.880;-0.862;2023-08-30T01:28:27;99830.31;;;18.55;68.92
72359;BME280;60317;48.880;-0.862;2023-08-30T01:30:55;99825.81;;;18.56;68.97
72359;BME280;60317;48.880;-0.862;2023-08-30T01:33:22;99826.94;;;18.53;69.04
72359;BME280;60317;48.880;-0.862;2023-08-30T01:35:49;99836.78;;;18.53;69.30
72359;BME280;60317;48.880;-0.862;2023-08-30T01:38:16;99841.28;;;18.52;69.36
72359;BME280;60317;48.880;-0.862;2023-08-30T01:40:44;99834.25;;;18.51;69.45
72359;BME280;60317;48.880;-0.862;2023-08-30T01:43:11;99833.41;;;18.51;69.43
72359;BME280;60317;48.880;-0.862;2023-08-30T01:45:42;99831.59;;;18.51;69.46
72359;BME280;60317;48.880;-0.862;2023-08-30T01:48:11;99838.03;;;18.49;69.67
72359;BME280;60317;48.880;-0.862;2023-08-30T01:50:39;99844.38;;;18.48;69.77
72359;BME280;60317;48.880;-0.862;2023-08-30T01:53:07;99835.25;;;18.50;69.60
72359;BME280;60317;48.880;-0.862;2023-08-30T01:55:35;99844.25;;;18.49;69.78
72359;BME280;60317;48.880;-0.862;2023-08-30T01:58:06;99831.84;;;18.48;69.68
72359;BME280;60317;48.880;-0.862;2023-08-30T02:00:34;99837.19;;;18.48;69.72
72359;BME280;60317;48.880;-0.862;2023-08-30T02:03:08;99833.53;;;18.49;69.61
72359;BME280;60317;48.880;-0.862;2023-08-30T02:05:37;99833.41;;;18.51;69.50
72359;BME280;60317;48.880;-0.862;2023-08-30T02:08:08;99835.09;;;18.52;69.43
72359;BME280;60317;48.880;-0.862;2023-08-30T02:10:41;99834.97;;;18.53;69.38
72359;BME280;60317;48.880;-0.862;2023-08-30T02:13:12;99841.28;;;18.52;69.49
72359;BME280;60317;48.880;-0.862;2023-08-30T02:15:39;99839.34;;;18.54;69.28
72359;BME280;60317;48.880;-0.862;2023-08-30T02:18:09;99841.28;;;18.52;69.56
72359;BME280;60317;48.880;-0.862;2023-08-30T02:20:37;99837.66;;;18.53;69.38
72359;BME280;60317;48.880;-0.862;2023-08-30T02:23:03;99834.97;;;18.53;69.34
72359;BME280;60317;48.880;-0.862;2023-08-30T02:25:40;99842.13;;;18.53;69.42
72359;BME280;60317;48.880;-0.862;2023-08-30T02:28:07;99844.97;;;18.51;69.45
72359;BME280;60317;48.880;-0.862;2023-08-30T02:30:34;99848.63;;;18.50;69.67
72359;BME280;60317;48.880;-0.862;2023-08-30T02:33:00;99840.72;;;18.49;69.61
72359;BME280;60317;48.880;-0.862;2023-08-30T02:35:28;99829.19;;;18.48;69.34
72359;BME280;60317;48.880;-0.862;2023-08-30T02:37:54;99837.34;;;18.47;69.13
72359;BME280;60317;48.880;-0.862;2023-08-30T02:40:21;99841.97;;;18.45;69.23
72359;BME280;60317;48.880;-0.862;2023-08-30T02:42:47;99837.63;;;18.44;69.23
72359;BME280;60317;48.880;-0.862;2023-08-30T02:45:14;99843.94;;;18.43;69.17
72359;BME280;60317;48.880;-0.862;2023-08-30T02:47:40;99846.59;;;18.43;69.18
72359;BME280;60317;48.880;-0.862;2023-08-30T02:50:07;99846.59;;;18.43;69.23
72359;BME280;60317;48.880;-0.862;2023-08-30T02:52:35;99843.81;;;18.44;69.16
72359;BME280;60317;48.880;-0.862;2023-08-30T02:55:02;99847.75;;;18.40;68.97
72359;BME280;60317;48.880;-0.862;2023-08-30T02:57:28;99846.91;;;18.40;68.96
72359;BME280;60317;48.880;-0.862;2023-08-30T02:59:55;99843.34;;;18.39;68.88
72359;BME280;60317;48.880;-0.862;2023-08-30T03:02:21;99847.03;;;18.38;68.81
72359;BME280;60317;48.880;-0.862;2023-08-30T03:04:48;99847.75;;;18.40;68.88
72359;BME280;60317;48.880;-0.862;2023-08-30T03:07:14;99848.69;;;18.39;68.72
72359;BME280;60317;48.880;-0.862;2023-08-30T03:09:42;99846.91;;;18.40;68.61
72359;BME280;60317;48.880;-0.862;2023-08-30T03:12:08;99835.31;;;18.39;68.76
72359;BME280;60317;48.880;-0.862;2023-08-30T03:14:35;99835.31;;;18.39;68.58
72359;BME280;60317;48.880;-0.862;2023-08-30T03:17:01;99832.66;;;18.39;68.38
72359;BME280;60317;48.880;-0.862;2023-08-30T03:19:28;99834.47;;;18.39;68.57
72359;BME280;60317;48.880;-0.862;2023-08-30T03:21:55;99831.97;;;18.37;68.63
72359;BME280;60317;48.880;-0.862;2023-08-30T03:24:21;99832.66;;;18.39;68.52
72359;BME280;60317;48.880;-0.862;2023-08-30T03:26:49;99829.97;;;18.39;68.59
72359;BME280;60317;48.880;-0.862;2023-08-30T03:29:15;99830.84;;;18.40;68.38
72359;BME280;60317;48.880;-0.862;2023-08-30T03:31:42;99825.63;;;18.38;68.29
72359;BME280;60317;48.880;-0.862;2023-08-30T03:34:08;99822.09;;;18.38;68.44
72359;BME280;60317;48.880;-0.862;2023-08-30T03:36:35;99825.75;;;18.36;68.47
72359;BME280;60317;48.880;-0.862;2023-08-30T03:39:02;99823.94;;;18.37;68.19
72359;BME280;60317;48.880;-0.862;2023-08-30T03:41:28;99823.78;;;18.39;68.15
72359;BME280;60317;48.880;-0.862;2023-08-30T03:43:56;99819.56;;;18.36;68.31
72359;BME280;60317;48.880;-0.862;2023-08-30T03:46:23;99827.72;;;18.34;68.20
72359;BME280;60317;48.880;-0.862;2023-08-30T03:48:49;99820.69;;;18.33;68.19
72359;BME280;60317;48.880;-0.862;2023-08-30T03:51:16;99821.53;;;18.34;68.14
72359;BME280;60317;48.880;-0.862;2023-08-30T03:53:43;99825.03;;;18.34;68.12
72359;BME280;60317;48.880;-0.862;2023-08-30T03:56:09;99818.69;;;18.35;67.97
72359;BME280;60317;48.880;-0.862;2023-08-30T03:58:36;99808.00;;;18.35;68.01
72359;BME280;60317;48.880;-0.862;2023-08-30T04:01:03;99818.84;;;18.34;68.06
72359;BME280;60317;48.880;-0.862;2023-08-30T04:03:30;99818.84;;;18.34;67.74
72359;BME280;60317;48.880;-0.862;2023-08-30T04:05:57;99814.22;;;18.36;67.73
72359;BME280;60317;48.880;-0.862;2023-08-30T04:08:23;99819.56;;;18.36;67.66
72359;BME280;60317;48.880;-0.862;2023-08-30T04:10:52;99816.16;;;18.34;67.80
72359;BME280;60317;48.880;-0.862;2023-08-30T04:13:19;99805.75;;;18.31;67.64
72359;BME280;60317;48.880;-0.862;2023-08-30T04:15:46;99818.84;;;18.34;67.72
72359;BME280;60317;48.880;-0.862;2023-08-30T04:18:13;99812.78;;;18.32;67.59
72359;BME280;60317;48.880;-0.862;2023-08-30T04:20:43;99819.94;;;18.31;67.56
72359;BME280;60317;48.880;-0.862;2023-08-30T04:23:10;99818.13;;;18.32;67.57
72359;BME280;60317;48.880;-0.862;2023-08-30T04:25:37;99824.34;;;18.32;67.58
72359;BME280;60317;48.880;-0.862;2023-08-30T04:28:04;99825.03;;;18.34;67.41
72359;BME280;60317;48.880;-0.862;2023-08-30T04:30:30;99820.69;;;18.33;67.39
72359;BME280;60317;48.880;-0.862;2023-08-30T04:32:57;99819.00;;;18.32;67.13
72359;BME280;60317;48.880;-0.862;2023-08-30T04:35:25;99817.16;;;18.33;67.05
72359;BME280;60317;48.880;-0.862;2023-08-30T04:37:52;99826.03;;;18.33;67.34
72359;BME280;60317;48.880;-0.862;2023-08-30T04:40:18;99827.88;;;18.33;67.27
72359;BME280;60317;48.880;-0.862;2023-08-30T04:42:45;99830.53;;;18.33;67.38
72359;BME280;60317;48.880;-0.862;2023-08-30T04:45:11;99831.66;;;18.30;67.60
72359;BME280;60317;48.880;-0.862;2023-08-30T04:47:38;99828.13;;;18.30;67.19
72359;BME280;60317;48.880;-0.862;2023-08-30T04:50:05;99837.72;;;18.32;67.24
72359;BME280;60317;48.880;-0.862;2023-08-30T04:52:33;99836.84;;;18.32;67.49
72359;BME280;60317;48.880;-0.862;2023-08-30T04:54:59;99834.31;;;18.30;67.25
72359;BME280;60317;48.880;-0.862;2023-08-30T04:57:26;99835.31;;;18.29;67.24
72359;BME280;60317;48.880;-0.862;2023-08-30T04:59:53;99838.81;;;18.30;67.29
72359;BME280;60317;48.880;-0.862;2023-08-30T05:02:19;99836.16;;;18.30;67.10
72359;BME280;60317;48.880;-0.862;2023-08-30T05:04:46;99842.19;;;18.32;67.05
72359;BME280;60317;48.880;-0.862;2023-08-30T05:07:12;99839.66;;;18.30;66.99
72359;BME280;60317;48.880;-0.862;2023-08-30T05:09:40;99837.00;;;18.30;67.09
72359;BME280;60317;48.880;-0.862;2023-08-30T05:12:07;99837.84;;;18.31;66.83
72359;BME280;60317;48.880;-0.862;2023-08-30T05:14:33;99839.53;;;18.32;66.91
72359;BME280;60317;48.880;-0.862;2023-08-30T05:17:00;99846.84;;;18.30;67.09
72359;BME280;60317;48.880;-0.862;2023-08-30T05:19:26;99846.00;;;18.29;67.03
72359;BME280;60317;48.880;-0.862;2023-08-30T05:21:53;99844.19;;;18.30;66.89
72359;BME280;60317;48.880;-0.862;2023-08-30T05:24:19;99848.69;;;18.29;66.77
72359;BME280;60317;48.880;-0.862;2023-08-30T05:26:47;99851.38;;;18.29;66.86
72359;BME280;60317;48.880;-0.862;2023-08-30T05:29:14;99850.53;;;18.29;66.74
72359;BME280;60317;48.880;-0.862;2023-08-30T05:31:41;99850.22;;;18.32;66.81
72359;BME280;60317;48.880;-0.862;2023-08-30T05:34:07;99853.06;;;18.30;66.76
72359;BME280;60317;48.880;-0.862;2023-08-30T05:36:34;99857.41;;;18.31;66.53
72359;BME280;60317;48.880;-0.862;2023-08-30T05:39:00;99856.56;;;18.31;66.59
72359;BME280;60317;48.880;-0.862;2023-08-30T05:41:27;99869.94;;;18.31;66.45
72359;BME280;60317;48.880;-0.862;2023-08-30T05:43:55;99855.88;;;18.29;66.51
72359;BME280;60317;48.880;-0.862;2023-08-30T05:46:21;99871.78;;;18.30;66.37
72359;BME280;60317;48.880;-0.862;2023-08-30T05:48:48;99855.72;;;18.30;66.40
72359;BME280;60317;48.880;-0.862;2023-08-30T05:51:14;99860.22;;;18.30;66.21
72359;BME280;60317;48.880;-0.862;2023-08-30T05:53:41;99860.09;;;18.31;66.02
72359;BME280;60317;48.880;-0.862;2023-08-30T05:56:07;99860.94;;;18.32;66.13
72359;BME280;60317;48.880;-0.862;2023-08-30T05:58:34;99863.75;;;18.30;66.11
72359;BME280;60317;48.880;-0.862;2023-08-30T06:01:02;99873.47;;;18.31;66.08
72359;BME280;60317;48.880;-0.862;2023-08-30T06:03:31;99867.28;;;18.31;66.18
72359;BME280;60317;48.880;-0.862;2023-08-30T06:05:57;99878.69;;;18.33;66.21
72359;BME280;60317;48.880;-0.862;2023-08-30T06:08:24;99869.16;;;18.40;65.99
72359;BME280;60317;48.880;-0.862;2023-08-30T06:10:50;99874.22;;;18.43;65.71
72359;BME280;60317;48.880;-0.862;2023-08-30T06:13:17;99869.56;;;18.45;65.74
72359;BME280;60317;48.880;-0.862;2023-08-30T06:15:43;99878.44;;;18.46;65.51
72359;BME280;60317;48.880;-0.862;2023-08-30T06:18:11;99886.34;;;18.47;65.44
72359;BME280;60317;48.880;-0.862;2023-08-30T06:20:40;99883.69;;;18.47;65.57
72359;BME280;60317;48.880;-0.862;2023-08-30T06:23:07;99885.38;;;18.48;65.46
72359;BME280;60317;48.880;-0.862;2023-08-30T06:25:33;99886.94;;;18.51;65.56
72359;BME280;60317;48.880;-0.862;2023-08-30T06:28:00;99884.25;;;18.51;65.38
72359;BME280;60317;48.880;-0.862;2023-08-30T06:30:27;99884.38;;;18.49;65.37
72359;BME280;60317;48.880;-0.862;2023-08-30T06:32:54;99884.69;;;18.46;65.46
72359;BME280;60317;48.880;-0.862;2023-08-30T06:35:22;99881.28;;;18.44;65.49
72359;BME280;60317;48.880;-0.862;2023-08-30T06:37:48;99882.25;;;18.43;65.71
72359;BME280;60317;48.880;-0.862;2023-08-30T06:40:15;99893.94;;;18.42;65.55
72359;BME280;60317;48.880;-0.862;2023-08-30T06:42:41;99894.78;;;18.43;65.46
72359;BME280;60317;48.880;-0.862;2023-08-30T06:45:08;99893.81;;;18.44;65.48
72359;BME280;60317;48.880;-0.862;2023-08-30T06:47:35;99886.63;;;18.44;65.49
72359;BME280;60317;48.880;-0.862;2023-08-30T06:50:02;99886.63;;;18.44;65.26
72359;BME280;60317;48.880;-0.862;2023-08-30T06:52:30;99887.34;;;18.46;65.33
72359;BME280;60317;48.880;-0.862;2023-08-30T06:54:56;99884.78;;;18.45;65.36
72359;BME280;60317;48.880;-0.862;2023-08-30T06:57:23;99881.38;;;18.43;65.14
72359;BME280;60317;48.880;-0.862;2023-08-30T06:59:49;99892.09;;;18.43;65.15
72359;BME280;60317;48.880;-0.862;2023-08-30T07:02:16;99879.59;;;18.43;64.87
72359;BME280;60317;48.880;-0.862;2023-08-30T07:04:42;99887.72;;;18.42;64.75
72359;BME280;60317;48.880;-0.862;2023-08-30T07:07:09;99908.03;;;18.44;64.55
72359;BME280;60317;48.880;-0.862;2023-08-30T07:09:37;99903.94;;;18.40;64.48
72359;BME280;60317;48.880;-0.862;2023-08-30T07:12:03;99896.47;;;18.44;64.52
72359;BME280;60317;48.880;-0.862;2023-08-30T07:14:30;99890.28;;;18.43;64.27
72359;BME280;60317;48.880;-0.862;2023-08-30T07:16:56;99881.28;;;18.44;64.04
72359;BME280;60317;48.880;-0.862;2023-08-30T07:19:24;99877.59;;;18.45;63.87
72359;BME280;60317;48.880;-0.862;2023-08-30T07:21:51;99872.25;;;18.45;63.99
72359;BME280;60317;48.880;-0.862;2023-08-30T07:24:17;99882.13;;;18.45;63.55
72359;BME280;60317;48.880;-0.862;2023-08-30T07:26:45;99896.75;;;18.41;63.61
72359;BME280;60317;48.880;-0.862;2023-08-30T07:29:11;99908.03;;;18.44;63.35
72359;BME280;60317;48.880;-0.862;2023-08-30T07:31:38;99905.47;;;18.43;63.05
72359;BME280;60317;48.880;-0.862;2023-08-30T07:34:04;99911.50;;;18.35;62.64
72359;BME280;60317;48.880;-0.862;2023-08-30T07:36:31;99914.25;;;18.24;63.00
72359;BME280;60317;48.880;-0.862;2023-08-30T07:39:00;99915.75;;;18.17;62.92
72359;BME280;60317;48.880;-0.862;2023-08-30T07:41:27;99910.69;;;18.13;62.64
72359;BME280;60317;48.880;-0.862;2023-08-30T07:43:55;99908.84;;;18.14;62.49
72359;BME280;60317;48.880;-0.862;2023-08-30T07:46:21;99905.84;;;18.07;62.68
72359;BME280;60317;48.880;-0.862;2023-08-30T07:48:51;99910.25;;;18.08;62.48
72359;BME280;60317;48.880;-0.862;2023-08-30T07:51:17;99916.84;;;18.04;62.50
72359;BME280;60317;48.880;-0.862;2023-08-30T07:53:44;99918.19;;;17.99;62.71
72359;BME280;60317;48.880;-0.862;2023-08-30T07:56:10;99911.47;;;18.04;62.87
72359;BME280;60317;48.880;-0.862;2023-08-30T07:58:37;99917.28;;;18.09;62.29
72359;BME280;60317;48.880;-0.862;2023-08-30T08:01:05;99923.03;;;18.05;62.08
72359;BME280;60317;48.880;-0.862;2023-08-30T08:03:31;99926.06;;;18.00;61.96
72359;BME280;60317;48.880;-0.862;2023-08-30T08:05:58;99912.84;;;17.99;61.79
72359;BME280;60317;48.880;-0.862;2023-08-30T08:08:25;99921.44;;;18.02;61.39
72359;BME280;60317;48.880;-0.862;2023-08-30T08:10:52;99928.75;;;18.00;61.76
72359;BME280;60317;48.880;-0.862;2023-08-30T08:13:19;99922.22;;;17.93;61.73
72359;BME280;60317;48.880;-0.862;2023-08-30T08:15:45;99925.47;;;17.97;61.62
72359;BME280;60317;48.880;-0.862;2023-08-30T08:18:13;99914.66;;;17.98;61.82
72359;BME280;60317;48.880;-0.862;2023-08-30T08:20:40;99920.28;;;17.95;61.69
72359;BME280;60317;48.880;-0.862;2023-08-30T08:23:06;99917.34;;;17.98;61.25
72359;BME280;60317;48.880;-0.862;2023-08-30T08:25:33;99925.94;;;18.02;61.27
72359;BME280;60317;48.880;-0.862;2023-08-30T08:27:59;99928.75;;;18.00;61.43
72359;BME280;60317;48.880;-0.862;2023-08-30T08:30:26;99927.19;;;17.98;61.29
72359;BME280;60317;48.880;-0.862;2023-08-30T08:32:52;99918.78;;;18.02;61.39
72359;BME280;60317;48.880;-0.862;2023-08-30T08:35:20;99922.44;;;18.01;61.24
72359;BME280;60317;48.880;-0.862;2023-08-30T08:37:47;99927.78;;;18.01;61.24
72359;BME280;60317;48.880;-0.862;2023-08-30T08:40:13;99920.47;;;18.03;61.27
72359;BME280;60317;48.880;-0.862;2023-08-30T08:42:45;99923.88;;;18.05;61.49
72359;BME280;60317;48.880;-0.862;2023-08-30T08:45:12;99925.56;;;18.06;61.14
72359;BME280;60317;48.880;-0.862;2023-08-30T08:47:40;99934.56;;;18.05;61.13
72359;BME280;60317;48.880;-0.862;2023-08-30T08:50:07;99937.09;;;18.07;61.25
72359;BME280;60317;48.880;-0.862;2023-08-30T08:52:35;99939.06;;;18.05;61.02
72359;BME280;60317;48.880;-0.862;2023-08-30T08:55:20;99930.38;;;18.12;61.32
72359;BME280;60317;48.880;-0.862;2023-08-30T08:57:46;99934.22;;;18.20;61.17
72359;BME280;60317;48.880;-0.862;2023-08-30T09:00:15;99932.72;;;18.27;60.96
72359;BME280;60317;48.880;-0.862;2023-08-30T09:02:42;99933.56;;;18.27;61.07
72359;BME280;60317;48.880;-0.862;2023-08-30T09:05:10;99933.97;;;18.23;61.19
72359;BME280;60317;48.880;-0.862;2023-08-30T09:07:38;99936.91;;;18.20;61.13
72359;BME280;60317;48.880;-0.862;2023-08-30T09:10:06;99941.00;;;18.24;60.97
72359;BME280;60317;48.880;-0.862;2023-08-30T09:12:33;99949.19;;;18.22;60.88
72359;BME280;60317;48.880;-0.862;2023-08-30T09:15:00;99944.53;;;18.24;60.60
72359;BME280;60317;48.880;-0.862;2023-08-30T09:17:35;99938.91;;;18.27;60.60
72359;BME280;60317;48.880;-0.862;2023-08-30T09:20:06;99944.25;;;18.27;60.70
72359;BME280;60317;48.880;-0.862;2023-08-30T09:22:38;99936.72;;;18.32;60.87
72359;BME280;60317;48.880;-0.862;2023-08-30T09:25:06;99930.78;;;18.29;60.63
72359;BME280;60317;48.880;-0.862;2023-08-30T09:27:33;99936.97;;;18.29;60.94
72359;BME280;60317;48.880;-0.862;2023-08-30T09:29:59;99946.09;;;18.27;60.79
72359;BME280;60317;48.880;-0.862;2023-08-30T09:32:26;99948.78;;;18.27;60.64
72359;BME280;60317;48.880;-0.862;2023-08-30T09:34:52;99953.38;;;18.25;60.83
72359;BME280;60317;48.880;-0.862;2023-08-30T09:37:20;99958.03;;;18.23;60.80
72359;BME280;60317;48.880;-0.862;2023-08-30T09:39:49;99954.53;;;18.22;60.59
72359;BME280;60317;48.880;-0.862;2023-08-30T09:42:16;99945.66;;;18.22;59.74
72359;BME280;60317;48.880;-0.862;2023-08-30T09:44:43;99940.56;;;18.19;59.84
72359;BME280;60317;48.880;-0.862;2023-08-30T09:47:10;99942.25;;;18.20;59.65
72359;BME280;60317;48.880;-0.862;2023-08-30T09:49:42;99942.97;;;18.22;59.53
72359;BME280;60317;48.880;-0.862;2023-08-30T09:52:10;99945.06;;;18.18;59.34
72359;BME280;60317;48.880;-0.862;2023-08-30T09:54:37;99942.00;;;18.23;59.56
72359;BME280;60317;48.880;-0.862;2023-08-30T09:57:07;99937.22;;;18.26;59.81
72359;BME280;60317;48.880;-0.862;2023-08-30T09:59:34;99950.34;;;18.29;59.75
72359;BME280;60317;48.880;-0.862;2023-08-30T10:02:01;99943.16;;;18.30;59.78
72359;BME280;60317;48.880;-0.862;2023-08-30T10:04:28;99944.84;;;18.31;59.83
72359;BME280;60317;48.880;-0.862;2023-08-30T10:06:56;99948.00;;;18.36;59.88
72359;BME280;60317;48.880;-0.862;2023-08-30T10:09:24;99946.00;;;18.38;60.02
72359;BME280;60317;48.880;-0.862;2023-08-30T10:11:51;99945.59;;;18.43;59.81
72359;BME280;60317;48.880;-0.862;2023-08-30T10:14:19;99944.75;;;18.42;60.14
72359;BME280;60317;48.880;-0.862;2023-08-30T10:16:46;99947.59;;;18.41;60.23
72359;BME280;60317;48.880;-0.862;2023-08-30T10:19:14;99936.31;;;18.37;60.37
72359;BME280;60317;48.880;-0.862;2023-08-30T10:21:43;99944.31;;;18.37;60.51
72359;BME280;60317;48.880;-0.862;2023-08-30T10:24:12;99940.41;;;18.41;60.48
72359;BME280;60317;48.880;-0.862;2023-08-30T10:27:00;99946.75;;;18.40;60.45
72359;BME280;60317;48.880;-0.862;2023-08-30T10:29:29;99945.16;;;18.38;60.52
72359;BME280;60317;48.880;-0.862;2023-08-30T10:32:01;99956.13;;;18.34;60.21
72359;BME280;60317;48.880;-0.862;2023-08-30T10:34:32;99954.69;;;18.30;59.46
72359;BME280;60317;48.880;-0.862;2023-08-30T10:36:59;99942.69;;;18.25;59.07
72359;BME280;60317;48.880;-0.862;2023-08-30T10:39:33;99946.34;;;18.24;59.05
72359;BME280;60317;48.880;-0.862;2023-08-30T10:41:59;99950.72;;;18.25;58.65
72359;BME280;60317;48.880;-0.862;2023-08-30T10:44:26;99944.78;;;18.21;58.45
72359;BME280;60317;48.880;-0.862;2023-08-30T10:46:54;99960.97;;;18.20;58.54
72359;BME280;60317;48.880;-0.862;2023-08-30T10:49:21;99955.63;;;18.20;59.23
72359;BME280;60317;48.880;-0.862;2023-08-30T10:51:55;99958.56;;;18.17;59.72
72359;BME280;60317;48.880;-0.862;2023-08-30T10:54:21;99957.13;;;18.12;60.41
72359;BME280;60317;48.880;-0.862;2023-08-30T10:56:53;99963.19;;;18.15;60.60
72359;BME280;60317;48.880;-0.862;2023-08-30T10:59:21;99953.47;;;18.13;60.86
72359;BME280;60317;48.880;-0.862;2023-08-30T11:01:49;99955.88;;;18.17;60.90
72359;BME280;60317;48.880;-0.862;2023-08-30T11:04:19;99950.13;;;18.21;61.11
72359;BME280;60317;48.880;-0.862;2023-08-30T11:06:47;99949.28;;;18.21;61.59
72359;BME280;60317;48.880;-0.862;2023-08-30T11:09:15;99943.94;;;18.21;61.68
72359;BME280;60317;48.880;-0.862;2023-08-30T11:11:42;99949.28;;;18.21;61.85
72359;BME280;60317;48.880;-0.862;2023-08-30T11:14:09;99945.91;;;18.19;61.25
72359;BME280;60317;48.880;-0.862;2023-08-30T11:16:36;99945.66;;;18.22;60.88
72359;BME280;60317;48.880;-0.862;2023-08-30T11:19:04;99943.41;;;18.27;60.43
72359;BME280;60317;48.880;-0.862;2023-08-30T11:21:33;99948.38;;;18.31;60.47
72359;BME280;60317;48.880;-0.862;2023-08-30T11:24:00;99940.81;;;18.36;60.36
72359;BME280;60317;48.880;-0.862;2023-08-30T11:26:27;99948.56;;;18.40;59.47
72359;BME280;60317;48.880;-0.862;2023-08-30T11:28:53;99943.22;;;18.40;59.20
72359;BME280;60317;48.880;-0.862;2023-08-30T11:31:20;99948.69;;;18.38;58.72
72359;BME280;60317;48.880;-0.862;2023-08-30T11:33:51;99935.78;;;18.43;58.31
72359;BME280;60317;48.880;-0.862;2023-08-30T11:36:18;99939.16;;;18.45;57.95
72359;BME280;60317;48.880;-0.862;2023-08-30T11:38:46;99935.22;;;18.49;57.03
72359;BME280;60317;48.880;-0.862;2023-08-30T11:41:17;99932.44;;;18.51;57.02
72359;BME280;60317;48.880;-0.862;2023-08-30T11:43:49;99932.44;;;18.51;56.89
72359;BME280;60317;48.880;-0.862;2023-08-30T11:46:16;99929.50;;;18.54;56.21
72359;BME280;60317;48.880;-0.862;2023-08-30T11:48:43;99933.69;;;18.56;55.17
72359;BME280;60317;48.880;-0.862;2023-08-30T11:51:11;99941.88;;;18.55;54.42
72359;BME280;60317;48.880;-0.862;2023-08-30T11:53:38;99933.44;;;18.59;53.78
72359;BME280;60317;48.880;-0.862;2023-08-30T11:56:08;99927.13;;;18.60;53.63
72359;BME280;60317;48.880;-0.862;2023-08-30T11:58:35;99935.28;;;18.59;53.49
72359;BME280;60317;48.880;-0.862;2023-08-30T12:01:02;99929.50;;;18.64;53.05
72359;BME280;60317;48.880;-0.862;2023-08-30T12:03:29;99931.91;;;18.67;53.25
72359;BME280;60317;48.880;-0.862;2023-08-30T12:05:56;99936.44;;;18.66;53.58
72359;BME280;60317;48.880;-0.862;2023-08-30T12:08:25;99928.28;;;18.68;53.51
72359;BME280;60317;48.880;-0.862;2023-08-30T12:10:52;99934.47;;;18.68;53.98
72359;BME280;60317;48.880;-0.862;2023-08-30T12:13:21;99925.47;;;18.69;54.50
72359;BME280;60317;48.880;-0.862;2023-08-30T12:15:48;99924.47;;;18.70;54.32
72359;BME280;60317;48.880;-0.862;2023-08-30T12:18:14;99923.38;;;18.73;54.56
72359;BME280;60317;48.880;-0.862;2023-08-30T12:20:52;99927.63;;;18.75;54.50
72359;BME280;60317;48.880;-0.862;2023-08-30T12:23:19;99922.13;;;18.77;54.65
72359;BME280;60317;48.880;-0.862;2023-08-30T12:25:56;99933.31;;;18.82;54.67
72359;BME280;60317;48.880;-0.862;2023-08-30T12:28:24;99930.63;;;18.82;54.80
72359;BME280;60317;48.880;-0.862;2023-08-30T12:30:51;99915.41;;;18.82;54.74
72359;BME280;60317;48.880;-0.862;2023-08-30T12:33:17;99920.59;;;18.84;54.82
72359;BME280;60317;48.880;-0.862;2023-08-30T12:35:44;99922.31;;;18.85;54.81
72359;BME280;60317;48.880;-0.862;2023-08-30T12:38:11;99930.06;;;18.88;55.08
72359;BME280;60317;48.880;-0.862;2023-08-30T12:40:37;99937.25;;;18.88;55.51
72359;BME280;60317;48.880;-0.862;2023-08-30T12:43:04;99929.63;;;18.83;55.33
72359;BME280;60317;48.880;-0.862;2023-08-30T12:45:32;99927.09;;;18.81;55.44
72359;BME280;60317;48.880;-0.862;2023-08-30T12:47:58;99923.84;;;18.78;55.83
72359;BME280;60317;48.880;-0.862;2023-08-30T12:50:25;99925.94;;;18.74;56.08
72359;BME280;60317;48.880;-0.862;2023-08-30T12:52:52;99931.56;;;18.71;56.31